createdAt,value
2018-06-11T07:27:11.283Z,54.8
2018-06-11T07:28:01.568Z,54.9
2018-06-11T07:28:51.591Z,55
2018-06-11T07:29:41.378Z,55.1
2018-06-11T07:30:31.476Z,55.2
2018-06-11T07:31:22.136Z,55.4
2018-06-11T07:32:11.580Z,55.4
2018-06-11T07:33:01.976Z,55.6
2018-06-11T07:33:51.973Z,55.6
2018-06-11T07:34:42.070Z,55.7
2018-06-11T07:35:31.547Z,55.8
2018-06-11T07:36:22.180Z,55.9
2018-06-11T07:37:12.262Z,56
2018-06-11T07:38:02.310Z,56
2018-06-11T07:38:52.071Z,56.2
2018-06-11T07:39:42.422Z,56.3
2018-06-11T07:40:31.941Z,56.4
2018-06-11T07:41:22.290Z,56.7
2018-06-11T07:42:12.345Z,56.8
2018-06-11T07:43:01.947Z,56.7
2018-06-11T07:43:52.774Z,56.8
2018-06-11T07:44:42.547Z,57
2018-06-11T07:45:32.422Z,57.2
2018-06-11T07:46:22.942Z,57.4
2018-06-11T07:47:13.024Z,57.5
2018-06-11T07:48:03.115Z,57.6
2018-06-11T07:49:43.207Z,57.9
2018-06-11T07:50:33.278Z,58.1
2018-06-11T07:51:23.330Z,58.1
2018-06-11T07:52:13.135Z,58.1
2018-06-11T07:53:03.246Z,58.1
2018-06-11T07:53:53.552Z,58.1
2018-06-11T07:54:42.746Z,58.3
2018-06-11T07:55:33.689Z,58.5
2018-06-11T07:56:23.455Z,58.6
2018-06-11T07:57:13.810Z,58.8
2018-06-11T07:58:03.584Z,58.9
2018-06-11T07:58:53.921Z,59.1
2018-06-11T07:59:43.979Z,59.3
2018-06-11T08:00:34.064Z,59.4
2018-06-11T08:01:24.403Z,59.4
2018-06-11T08:02:13.898Z,59.6
2018-06-11T08:03:04.261Z,59.7
2018-06-11T08:03:54.326Z,59.8
2018-06-11T08:04:44.369Z,59.9
2018-06-11T08:05:34.429Z,60
2018-06-11T08:06:24.492Z,60.1
2018-06-11T08:07:14.008Z,60.1
2018-06-11T08:08:04.653Z,60.2
2018-06-11T08:08:54.438Z,60.3
2018-06-11T08:09:44.509Z,60.3
2018-06-11T08:10:34.812Z,60.5
2018-06-11T08:11:24.874Z,60.6
2018-06-11T08:12:14.942Z,60.7
2018-06-11T08:13:05.012Z,60.9
2018-06-11T08:13:54.837Z,61.1
2018-06-11T08:14:45.132Z,61.2
2018-06-11T08:15:34.642Z,61.3
2018-06-11T08:16:25.283Z,61.3
2018-06-11T08:17:15.333Z,61.1
2018-06-11T08:18:05.141Z,61.1
2018-06-11T08:18:55.479Z,60.9
2018-06-11T08:19:45.562Z,60.9
2018-06-11T08:20:35.333Z,60.9
2018-06-11T08:21:25.662Z,61.1
2018-06-11T08:22:15.734Z,61.3
2018-06-11T08:23:05.794Z,61.6
2018-06-11T08:23:55.852Z,61.7
2018-06-11T08:24:45.369Z,61.9
2018-06-11T08:25:35.989Z,62
2018-06-11T08:26:26.092Z,62.1
2018-06-11T08:27:15.849Z,62.3
2018-06-11T08:28:06.188Z,62.4
2018-06-11T08:28:56.261Z,62.3
2018-06-11T08:29:46.353Z,62.3
2018-06-11T08:30:36.366Z,62.3
2018-06-11T08:31:26.436Z,62.3
2018-06-11T08:32:15.974Z,62.4
2018-06-11T08:33:06.560Z,62.4
2018-06-11T08:33:56.340Z,62.4
2018-06-11T08:34:46.700Z,62.7
2018-06-11T08:35:36.483Z,62.9
2018-06-11T08:36:26.539Z,63.1
2018-06-11T08:37:16.922Z,63.3
2018-06-11T08:38:06.206Z,63.4
2018-06-11T08:38:57.025Z,63.5
2018-06-11T08:39:46.812Z,63.6
2018-06-11T08:40:36.887Z,63.6
2018-06-11T08:41:26.924Z,63.7
2018-06-11T08:42:16.530Z,63.8
2018-06-11T08:43:06.805Z,63.9
2018-06-11T08:43:56.871Z,64
2018-06-11T08:44:47.503Z,64
2018-06-11T08:45:37.573Z,63.8
2018-06-11T08:46:26.768Z,63.8
2018-06-11T08:47:17.678Z,63.9
2018-06-11T08:48:07.253Z,64.1
2018-06-11T08:48:57.231Z,64.1
2018-06-11T08:49:47.878Z,63.9
2018-06-11T08:50:37.955Z,63.9
2018-06-11T08:51:28.004Z,64.1
2018-06-11T08:52:18.061Z,64.3
2018-06-11T08:53:08.158Z,64.4
2018-06-11T08:53:57.928Z,64.5
2018-06-11T08:54:47.693Z,64.6
2018-06-11T08:55:38.335Z,64.8
2018-06-11T08:56:28.395Z,64.9
2018-06-11T08:57:18.442Z,64.9
2018-06-11T08:58:07.659Z,65
2018-06-11T08:58:58.582Z,65.1
2018-06-11T08:59:48.947Z,65.1
2018-06-11T09:00:38.434Z,65.1
2018-06-11T09:01:28.507Z,65.2
2018-06-11T09:02:18.565Z,65.3
2018-06-11T09:03:08.772Z,65.5
2018-06-11T09:03:58.970Z,65.4
2018-06-11T09:04:48.811Z,65.2
2018-06-11T09:05:38.825Z,64.9
2018-06-11T09:06:29.174Z,64.8
2018-06-11T09:07:18.963Z,64.6
2018-06-11T09:08:09.305Z,64.3
2018-06-11T09:08:59.361Z,64.1
2018-06-11T09:09:48.652Z,64
2018-06-11T09:10:39.197Z,63.8
2018-06-11T09:11:29.304Z,63.7
2018-06-11T09:12:19.634Z,63.7
2018-06-11T09:13:09.701Z,63.8
2018-06-11T09:13:59.750Z,64.1
2018-06-11T09:14:49.817Z,64.4
2018-06-11T09:15:39.626Z,64.6
2018-06-11T09:16:29.949Z,64.7
2018-06-11T09:17:20.008Z,64.6
2018-06-11T09:18:10.907Z,64.6
2018-06-11T09:18:59.849Z,64.8
2018-06-11T09:19:50.241Z,64.9
2018-06-11T09:20:40.013Z,64.8
2018-06-11T09:21:30.061Z,64.8
2018-06-11T09:22:20.408Z,64.6
2018-06-11T09:23:10.478Z,64.4
2018-06-11T09:23:59.693Z,64.3
2018-06-11T09:24:50.586Z,64.2
2018-06-11T09:25:40.724Z,64.1
2018-06-11T09:26:30.748Z,64.1
2018-06-11T09:27:20.520Z,64.1
2018-06-11T09:28:10.871Z,64.3
2018-06-11T09:29:00.900Z,64.4
2018-06-11T09:29:51.027Z,64.5
2018-06-11T09:30:40.766Z,64.6
2018-06-11T09:31:30.840Z,64.6
2018-06-11T09:32:21.181Z,64.8
2018-06-11T09:33:11.258Z,64.9
2018-06-11T09:34:01.043Z,64.9
2018-06-11T09:34:51.386Z,65.1
2018-06-11T09:35:41.424Z,65.3
2018-06-11T09:36:31.497Z,65.3
2018-06-11T09:37:21.563Z,65.3
2018-06-11T09:38:11.921Z,65.3
2018-06-11T09:39:01.416Z,65.3
2018-06-11T09:39:51.198Z,65.4
2018-06-11T09:40:41.375Z,65.6
2018-06-11T09:41:31.315Z,65.6
2018-06-11T09:42:22.001Z,65.7
2018-06-11T09:43:11.184Z,65.8
2018-06-11T09:44:02.040Z,65.9
2018-06-11T09:44:51.908Z,66.1
2018-06-11T09:45:41.675Z,66.2
2018-06-11T09:46:32.282Z,66.3
2018-06-11T09:47:22.067Z,66.4
2018-06-11T09:48:12.420Z,66.6
2018-06-11T09:49:02.196Z,66.4
2018-06-11T09:49:51.776Z,66.3
2018-06-11T09:50:42.318Z,66.5
2018-06-11T09:51:32.708Z,66.7
2018-06-11T09:52:22.467Z,66.9
2018-06-11T09:53:12.534Z,67
2018-06-11T09:54:02.036Z,67.1
2018-06-11T09:54:52.923Z,67.1
2018-06-11T09:55:42.684Z,67.1
2018-06-11T09:56:33.069Z,67.1
2018-06-11T09:57:23.122Z,67.3
2018-06-11T09:58:13.187Z,67.3
2018-06-11T09:59:02.992Z,67.3
2018-06-11T09:59:53.053Z,67.3
2018-06-11T10:00:43.392Z,67.3
2018-06-11T10:01:33.508Z,67.4
2018-06-11T10:02:23.214Z,67.6
2018-06-11T10:03:13.316Z,67.7
2018-06-11T10:04:03.644Z,67.6
2018-06-11T10:04:53.699Z,67.5
2018-06-11T10:05:43.777Z,67.6
2018-06-11T10:06:33.841Z,67.9
2018-06-11T10:07:23.913Z,68
2018-06-11T10:08:13.132Z,68.1
2018-06-11T10:09:03.861Z,68.1
2018-06-11T10:09:53.821Z,68.2
2018-06-11T10:10:44.150Z,68.2
2018-06-11T10:11:34.244Z,68.1
2018-06-11T10:12:24.849Z,68.1
2018-06-11T10:13:14.340Z,68.2
2018-06-11T10:14:04.151Z,68.2
2018-06-11T10:14:53.935Z,68.3
2018-06-11T10:15:44.543Z,68.2
2018-06-11T10:16:34.625Z,68.1
2018-06-11T10:17:24.410Z,68.1
2018-06-11T10:18:14.456Z,68.2
2018-06-11T10:19:05.073Z,68.3
2018-06-11T10:19:54.892Z,68.4
2018-06-11T10:20:44.919Z,68.2
2018-06-11T10:21:35.014Z,68.1
2018-06-11T10:22:25.065Z,68
2018-06-11T10:23:14.851Z,67.9
2018-06-11T10:24:05.242Z,67.9
2018-06-11T10:24:55.743Z,67.9
2018-06-11T10:25:45.334Z,67.9
2018-06-11T10:26:35.398Z,67.8
2018-06-11T10:27:25.446Z,67.9
2018-06-11T10:28:15.536Z,67.9
2018-06-11T10:29:05.309Z,68
2018-06-11T10:29:55.661Z,68.2
2018-06-11T10:30:45.543Z,68.3
2018-06-11T10:31:35.783Z,68.3
2018-06-11T10:32:25.688Z,68.4
2018-06-11T10:33:15.903Z,68.6
2018-06-11T10:34:05.994Z,68.8
2018-06-11T10:34:56.035Z,68.9
2018-06-11T10:35:46.121Z,69.1
2018-06-11T10:36:36.209Z,69.1
2018-06-11T10:37:26.009Z,69
2018-06-11T10:38:16.009Z,68.9
2018-06-11T10:39:05.611Z,69
2018-06-11T10:39:56.161Z,69.1
2018-06-11T10:40:46.224Z,69.2
2018-06-11T10:41:36.268Z,69.4
2018-06-11T10:42:26.625Z,69.2
2018-06-11T10:43:16.402Z,69.1
2018-06-11T10:44:06.496Z,69.1
2018-06-11T10:44:56.540Z,69.1
2018-06-11T10:45:46.903Z,69.1
2018-06-11T10:46:36.943Z,69.1
2018-06-11T10:47:27.018Z,69.1
2018-06-11T10:48:16.515Z,69.1
2018-06-11T10:49:07.163Z,69.3
2018-06-11T10:49:56.948Z,69.2
2018-06-11T10:50:46.728Z,69.1
2018-06-11T10:51:37.331Z,69.2
2018-06-11T10:52:27.418Z,69.3
2018-06-11T10:53:16.914Z,69.3
2018-06-11T10:54:07.531Z,69.4
2018-06-11T10:54:57.343Z,69.4
2018-06-11T10:55:47.665Z,69.4
2018-06-11T10:56:37.453Z,69.6
2018-06-11T10:57:27.235Z,69.8
2018-06-11T10:58:17.326Z,70
2018-06-11T10:59:07.677Z,70.2
2018-06-11T10:59:57.728Z,69.8
2018-06-11T11:00:47.778Z,68.6
2018-06-11T11:01:37.866Z,67.3
2018-06-11T11:02:27.627Z,67.1
2018-06-11T11:03:17.692Z,67.6
2018-06-11T11:04:08.312Z,68.3
2018-06-11T11:04:58.385Z,69.1
2018-06-11T11:05:48.468Z,69.4
2018-06-11T11:06:38.251Z,69.4
2018-06-11T11:07:28.607Z,69.1
2018-06-11T11:08:18.624Z,68.8
2018-06-11T11:09:08.707Z,68.8
2018-06-11T11:09:58.493Z,68.9
2018-06-11T11:10:48.869Z,68.9
2018-06-11T11:11:38.873Z,69.1
2018-06-11T11:12:28.788Z,69.1
2018-06-11T11:13:19.030Z,69.3
2018-06-11T11:14:08.831Z,69.3
2018-06-11T11:14:58.881Z,69.2
2018-06-11T11:15:48.949Z,69.3
2018-06-11T11:16:39.290Z,69.5
2018-06-11T11:17:29.104Z,69.8
2018-06-11T11:18:19.146Z,69.9
2018-06-11T11:19:09.474Z,69.9
2018-06-11T11:19:58.998Z,70
2018-06-11T11:20:49.376Z,70.1
2018-06-11T11:21:39.656Z,70.3
2018-06-11T11:22:29.730Z,70.3
2018-06-11T11:23:19.799Z,70.2
2018-06-11T11:24:09.864Z,70.2
2018-06-11T11:24:59.974Z,70.2
2018-06-11T11:25:49.720Z,70.2
2018-06-11T11:26:40.054Z,70.1
2018-06-11T11:27:30.135Z,69.9
2018-06-11T11:28:20.200Z,69.8
2018-06-11T11:29:09.701Z,69.7
2018-06-11T11:30:00.331Z,69.7
2018-06-11T11:30:50.392Z,69.7
2018-06-11T11:31:40.485Z,69.5
2018-06-11T11:32:29.950Z,69.3
2018-06-11T11:33:20.571Z,69.4
2018-06-11T11:34:10.365Z,69.6
2018-06-11T11:35:00.705Z,69.6
2018-06-11T11:35:50.492Z,69.6
2018-06-11T11:36:40.832Z,69.7
2018-06-11T11:37:30.918Z,69.7
2018-06-11T11:38:20.428Z,69.6
2018-06-11T11:39:11.036Z,69.7
2018-06-11T11:40:01.125Z,69.8
2018-06-11T11:40:51.157Z,69.8
2018-06-11T11:41:41.219Z,69.8
2018-06-11T11:42:31.284Z,69.8
2018-06-11T11:43:20.807Z,69.7
2018-06-11T11:44:11.473Z,69.6
2018-06-11T11:45:01.221Z,69.7
2018-06-11T11:45:51.310Z,69.8
2018-06-11T11:46:41.327Z,69.9
2018-06-11T11:47:31.416Z,69.8
2018-06-11T11:48:21.189Z,69.4
2018-06-11T11:49:11.817Z,69.3
2018-06-11T11:50:01.887Z,69.3
2018-06-11T11:50:51.691Z,69.2
2018-06-11T11:51:42.035Z,69.2
2018-06-11T11:52:32.086Z,69.3
2018-06-11T11:53:22.134Z,69.3
2018-06-11T11:54:11.934Z,69.4
2018-06-11T11:55:01.436Z,69.5
2018-06-11T11:55:52.374Z,69.5
2018-06-11T11:56:42.405Z,69.5
2018-06-11T11:57:32.697Z,69.6
2018-06-11T11:58:22.568Z,69.7
2018-06-11T11:59:12.661Z,69.6
2018-06-11T12:00:02.666Z,69.6
2018-06-11T12:00:52.179Z,69.7
2018-06-11T12:01:43.034Z,69.9
2018-06-11T12:02:32.898Z,69.9
2018-06-11T12:03:22.952Z,69.9
2018-06-11T12:04:12.471Z,69.9
2018-06-11T12:05:03.055Z,70
2018-06-11T12:05:52.847Z,70
2018-06-11T12:06:43.174Z,70
2018-06-11T12:07:33.130Z,69.9
2018-06-11T12:08:23.108Z,69.9
2018-06-11T12:09:13.113Z,69.8
2018-06-11T12:10:03.209Z,69.1
2018-06-11T12:10:53.560Z,67.3
2018-06-11T12:11:43.581Z,65.5
2018-06-11T12:12:33.351Z,65.1
2018-06-11T12:13:23.702Z,65.8
2018-06-11T12:14:13.774Z,66.6
2018-06-11T12:15:03.565Z,67.2
2018-06-11T12:15:53.639Z,67.5
2018-06-11T12:16:43.960Z,67.6
2018-06-11T12:17:34.024Z,67.3
2018-06-11T12:18:24.141Z,67.1
2018-06-11T12:19:14.169Z,66.9
2018-06-11T12:20:03.930Z,67.1
2018-06-11T12:20:54.307Z,67.4
2018-06-11T12:21:44.072Z,67.6
2018-06-11T12:22:34.414Z,67.7
2018-06-11T12:23:24.470Z,67.7
2018-06-11T12:24:14.560Z,67.7
2018-06-11T12:25:04.845Z,67.7
2018-06-11T12:25:54.398Z,67.7
2018-06-11T12:26:44.491Z,67.8
2018-06-11T12:27:34.797Z,67.8
2018-06-11T12:28:24.864Z,67.8
2018-06-11T12:29:14.669Z,67.7
2018-06-11T12:30:04.719Z,67.4
2018-06-11T12:30:54.793Z,67.5
2018-06-11T12:31:44.847Z,67.6
2018-06-11T12:32:34.932Z,67.6
2018-06-11T12:33:25.257Z,67.5
2018-06-11T12:34:15.308Z,67.4
2018-06-11T12:35:05.389Z,67.4
2018-06-11T12:35:55.170Z,67.3
2018-06-11T12:36:44.954Z,67.4
2018-06-11T12:37:35.577Z,67.4
2018-06-11T12:38:25.716Z,67.4
2018-06-11T12:39:15.444Z,67.6
2018-06-11T12:40:05.524Z,67.6
2018-06-11T12:40:55.846Z,67.6
2018-06-11T12:41:45.932Z,67.7
2018-06-11T12:42:35.441Z,67.6
2018-06-11T12:43:26.056Z,67.3
2018-06-11T12:44:15.553Z,67.1
2018-06-11T12:45:05.928Z,66.9
2018-06-11T12:45:55.674Z,66.7
2018-06-11T12:46:46.335Z,66.6
2018-06-11T12:47:36.686Z,66.6
2018-06-11T12:48:26.151Z,66.4
2018-06-11T12:49:16.558Z,66.4
2018-06-11T12:50:06.021Z,66.5
2018-06-11T12:50:56.618Z,66.6
2018-06-11T12:51:46.403Z,66.6
2018-06-11T12:52:36.466Z,66.5
2018-06-11T12:53:26.832Z,66.3
2018-06-11T12:54:16.651Z,66.3
2018-06-11T12:55:06.403Z,66.1
2018-06-11T12:55:56.999Z,66.1
2018-06-11T12:56:46.822Z,66
2018-06-11T12:57:36.870Z,65.8
2018-06-11T12:58:26.663Z,65.9
2018-06-11T12:59:17.291Z,66.1
2018-06-11T13:00:07.363Z,66.3
2018-06-11T13:00:57.150Z,66.3
2018-06-11T13:01:47.503Z,66.4
2018-06-11T13:02:37.548Z,66.6
2018-06-11T13:03:27.598Z,66.5
2018-06-11T13:04:17.407Z,66.4
2018-06-11T13:05:07.789Z,66.3
2018-06-11T13:05:57.798Z,66.1
2018-06-11T13:06:47.859Z,66
2018-06-11T13:07:37.919Z,65.9
2018-06-11T13:08:28.010Z,65.8
2018-06-11T13:09:18.060Z,65.8
2018-06-11T13:10:07.892Z,65.7
2018-06-11T13:10:58.237Z,65.7
2018-06-11T13:11:48.296Z,65.8
2018-06-11T13:12:38.342Z,65.8
2018-06-11T13:13:28.419Z,65.4
2018-06-11T13:14:18.485Z,65.1
2018-06-11T13:15:08.287Z,65.1
2018-06-11T13:15:58.312Z,65.3
2018-06-11T13:16:48.669Z,65.4
2018-06-11T13:17:38.154Z,65.3
2018-06-11T13:18:28.502Z,65.1
2018-06-11T13:19:18.572Z,65.1
2018-06-11T13:20:08.931Z,65.1
2018-06-11T13:20:58.975Z,65
2018-06-11T13:21:49.046Z,64.9
2018-06-11T13:22:39.124Z,64.8
2018-06-11T13:23:28.901Z,64.6
2018-06-11T13:24:18.984Z,64.4
2018-06-11T13:25:08.751Z,64.2
2018-06-11T13:25:59.394Z,63.8
2018-06-11T13:26:48.597Z,63.6
2018-06-11T13:27:39.220Z,63.3
2018-06-11T13:28:29.553Z,63.1
2018-06-11T13:29:19.615Z,62.9
2018-06-11T13:30:09.683Z,62.8
2018-06-11T13:30:59.486Z,62.8
2018-06-11T13:31:49.818Z,62.9
2018-06-11T13:32:39.618Z,63.1
2018-06-11T13:33:29.948Z,63.3
2018-06-11T13:34:19.471Z,63.4
2018-06-11T13:35:10.087Z,63.6
2018-06-11T13:36:00.165Z,63.6
2018-06-11T13:36:49.388Z,63.4
2018-06-11T13:37:40.292Z,63.4
2018-06-11T13:38:30.087Z,63.3
2018-06-11T13:39:20.145Z,63.2
2018-06-11T13:40:10.504Z,63.1
2018-06-11T13:40:59.990Z,62.9
2018-06-11T13:41:50.333Z,62.8
2018-06-11T13:42:40.410Z,62.6
2018-06-11T13:43:30.165Z,62.4
2018-06-11T13:44:20.533Z,62.2
2018-06-11T13:45:10.595Z,61.9
2018-06-11T13:46:00.663Z,61.6
2018-06-11T13:46:50.718Z,61.4
2018-06-11T13:47:41.080Z,61.3
2018-06-11T13:48:30.837Z,61.1
2018-06-11T13:49:20.912Z,60.8
2018-06-11T13:50:11.537Z,60.5
2018-06-11T13:51:01.320Z,60.1
2018-06-11T13:51:51.374Z,59.6
2018-06-11T13:52:41.450Z,59.3
2018-06-11T13:53:31.508Z,58.9
2018-06-11T13:54:21.567Z,58.6
2018-06-11T13:55:11.692Z,58.3
2018-06-11T13:56:01.690Z,58
2018-06-11T13:56:51.797Z,57.7
2018-06-11T13:57:41.826Z,57.4
2018-06-11T13:58:31.893Z,57.2
2018-06-11T13:59:21.958Z,56.9
2018-06-11T14:00:11.774Z,56.6
2018-06-11T14:01:01.548Z,56.3
2018-06-11T14:01:52.174Z,56
2018-06-11T14:02:42.216Z,55.6
2018-06-11T14:03:32.302Z,55.3
2018-06-11T14:04:22.367Z,54.9
2018-06-11T14:05:12.444Z,54.4
2018-06-11T14:06:02.493Z,53.9
2018-06-11T14:06:52.552Z,53.5
2018-06-11T14:07:42.665Z,53.2
2018-06-11T14:08:32.394Z,52.9
2018-06-11T14:09:22.762Z,52.6
2018-06-11T14:10:12.838Z,52.4
2018-06-11T14:11:02.615Z,52.3
2018-06-11T14:11:52.388Z,52.2
2018-06-11T14:12:42.056Z,52
2018-06-11T14:13:32.810Z,51.8
2018-06-11T14:14:23.135Z,51.6
2018-06-11T14:15:12.674Z,51.4
2018-06-11T14:16:03.288Z,51.3
2018-06-11T14:16:53.045Z,51.2
2018-06-11T14:17:43.115Z,51
2018-06-11T14:18:32.938Z,51.1
2018-06-11T14:19:23.201Z,51.2
2018-06-11T14:20:13.590Z,51.3
2018-06-11T14:21:03.444Z,51.3
2018-06-11T14:21:53.710Z,51.3
2018-06-11T14:22:43.770Z,51.3
2018-06-11T14:23:33.850Z,51.4
2018-06-11T14:24:23.912Z,51.4
2018-06-11T14:25:13.435Z,51.6
2018-06-11T14:26:04.062Z,51.8
2018-06-11T14:26:54.118Z,52.1
2018-06-11T14:27:43.901Z,52.4
2018-06-11T14:28:34.550Z,52.9
2018-06-11T14:29:24.320Z,53.4
2018-06-11T14:30:14.101Z,53.9
2018-06-11T14:31:04.174Z,54.4
2018-06-11T14:31:54.523Z,54.7
2018-06-11T14:32:43.724Z,55
2018-06-11T14:33:34.684Z,55.3
2018-06-11T14:34:24.737Z,55.7
2018-06-11T14:35:14.494Z,56.1
2018-06-11T14:36:04.849Z,56.4
2018-06-11T14:36:54.607Z,56.7
2018-06-11T14:37:44.957Z,57
2018-06-11T14:38:35.034Z,57.3
2018-06-11T14:39:24.834Z,57.4
2018-06-11T14:40:15.161Z,57.4
2018-06-11T14:41:05.440Z,57.6
2018-06-11T14:41:55.300Z,57.7
2018-06-11T14:42:45.107Z,57.8
2018-06-11T14:43:35.438Z,57.9
2018-06-11T14:44:25.278Z,58.1
2018-06-11T14:45:15.550Z,58.3
2018-06-11T14:46:05.365Z,58.4
2018-06-11T14:46:55.685Z,58.5
2018-06-11T14:47:45.469Z,58.7
2018-06-11T14:48:35.805Z,58.8
2018-06-11T14:49:25.896Z,58.8
2018-06-11T14:50:15.705Z,58.7
2018-06-11T14:51:06.027Z,58.6
2018-06-11T14:51:55.526Z,58.6
2018-06-11T14:52:45.575Z,58.5
2018-06-11T14:53:35.921Z,58.5
2018-06-11T14:54:26.287Z,58.5
2018-06-11T14:55:16.339Z,58.4
2018-06-11T14:56:06.119Z,58.3
2018-06-11T14:56:55.881Z,58.2
2018-06-11T14:57:46.520Z,58.1
2018-06-11T14:58:36.616Z,58
2018-06-11T14:59:26.641Z,58
2018-06-11T15:00:16.732Z,57.9
2018-06-11T15:01:06.780Z,57.9
2018-06-11T15:02:46.911Z,57.5
2018-06-11T15:03:37.058Z,57.3
2018-06-11T15:04:26.296Z,56.9
2018-06-11T15:05:16.833Z,56.6
2018-06-11T15:06:06.599Z,56.3
2018-06-11T15:06:56.967Z,55.9
2018-06-11T15:07:46.850Z,55.6
2018-06-11T15:08:37.349Z,55.3
2018-06-11T15:09:27.301Z,55.1
2018-06-11T15:10:17.224Z,54.8
2018-06-11T15:11:07.618Z,54.6
2018-06-11T15:11:57.618Z,54.4
2018-06-11T15:12:47.418Z,54.1
2018-06-11T15:13:37.741Z,53.8
2018-06-11T15:14:27.887Z,53.6
2018-06-11T15:15:17.920Z,53.3
2018-06-11T15:16:07.951Z,53.1
2018-06-11T15:16:58.012Z,52.8
2018-06-11T15:17:48.079Z,52.6
2018-06-11T15:18:37.880Z,52.2
2018-06-11T15:19:28.232Z,51.8
2018-06-11T15:20:18.273Z,51.4
2018-06-11T15:21:08.327Z,51.2
2018-06-11T15:21:58.403Z,50.9
2018-06-11T15:22:48.467Z,50.6
2018-06-11T15:23:38.561Z,50.3
2018-06-11T15:24:28.632Z,50
2018-06-11T15:25:18.395Z,49.7
2018-06-11T15:26:08.769Z,49.4
2018-06-11T15:26:58.531Z,48.9
2018-06-11T15:27:48.882Z,48.6
2018-06-11T15:28:38.666Z,48.2
2018-06-11T15:29:29.442Z,47.8
2018-06-11T15:30:18.807Z,47.5
2018-06-11T15:31:09.132Z,47.2
2018-06-11T15:31:59.179Z,46.8
2018-06-11T15:32:48.973Z,46.5
2018-06-11T15:33:39.314Z,46.2
2018-06-11T15:34:29.399Z,45.9
2018-06-11T15:35:19.169Z,45.6
2018-06-11T15:36:09.515Z,45.3
2018-06-11T15:36:59.021Z,45
2018-06-11T15:37:49.652Z,44.8
2018-06-11T15:38:39.739Z,44.6
2018-06-11T15:39:29.511Z,44.4
2018-06-11T15:40:19.858Z,44.3
2018-06-11T15:41:09.646Z,44
2018-06-11T15:41:59.704Z,43.8
2018-06-11T15:42:50.033Z,43.6
2018-06-11T15:43:40.091Z,43.4
2018-06-11T15:44:29.625Z,43.2
2018-06-11T15:45:20.262Z,43
2018-06-11T15:46:10.022Z,42.8
2018-06-11T15:47:00.086Z,42.6
2018-06-11T15:47:50.158Z,42.4
2018-06-11T15:48:40.515Z,42.2
2018-06-11T15:49:30.300Z,42.1
2018-06-11T15:50:20.382Z,41.9
2018-06-11T15:51:10.417Z,41.8
2018-06-11T15:52:00.747Z,41.6
2018-06-11T15:52:50.842Z,41.4
2018-06-11T15:53:40.311Z,41.2
2018-06-11T15:54:30.958Z,41
2018-06-11T15:55:21.024Z,40.8
2018-06-11T15:56:11.074Z,40.7
2018-06-11T15:57:00.856Z,40.6
2018-06-11T15:57:51.239Z,40.4
2018-06-11T15:58:41.279Z,40.3
2018-06-11T15:59:31.060Z,40.2
2018-06-11T16:00:21.398Z,40.1
2018-06-11T16:01:11.479Z,39.9
2018-06-11T16:02:01.530Z,39.9
2018-06-11T16:02:51.592Z,39.8
2018-06-11T16:03:41.655Z,39.6
2018-06-11T16:04:31.730Z,39.4
2018-06-11T16:05:21.926Z,39.3
2018-06-11T16:06:11.867Z,39.3
2018-06-11T16:07:01.932Z,39.2
2018-06-11T16:07:51.985Z,39.1
2018-06-11T16:08:42.074Z,39
2018-06-11T16:09:31.854Z,38.9
2018-06-11T16:10:21.631Z,38.8
2018-06-11T16:11:11.997Z,38.8
2018-06-11T16:12:02.233Z,38.7
2018-06-11T16:12:52.098Z,38.6
2018-06-11T16:13:42.447Z,38.5
2018-06-11T16:14:32.071Z,38.4
2018-06-11T16:15:22.560Z,38.4
2018-06-11T16:16:12.638Z,38.3
2018-06-11T16:17:02.712Z,38.3
2018-06-11T16:17:52.493Z,38.1
2018-06-11T16:18:42.553Z,38.1
2018-06-11T16:19:32.888Z,37.9
2018-06-11T16:20:22.996Z,37.8
2018-06-11T16:21:13.027Z,37.8
2018-06-11T16:22:03.115Z,37.7
2018-06-11T16:22:53.178Z,37.6
2018-06-11T16:23:43.227Z,37.6
2018-06-11T16:24:33.368Z,37.4
2018-06-11T16:25:23.414Z,37.3
2018-06-11T16:26:13.162Z,37.2
2018-06-11T16:27:03.491Z,37.1
2018-06-11T16:27:53.604Z,37
2018-06-11T16:28:43.626Z,36.9
2018-06-11T16:29:33.388Z,36.9
2018-06-11T16:30:23.476Z,36.8
2018-06-11T16:31:13.534Z,36.7
2018-06-11T16:32:03.923Z,36.6
2018-06-11T16:32:53.943Z,36.5
2018-06-11T16:33:44.024Z,36.4
2018-06-11T16:34:34.155Z,36.3
2018-06-11T16:35:24.151Z,36.3
2018-06-11T16:36:14.251Z,36.2
2018-06-11T16:37:04.646Z,36.1
2018-06-11T16:37:54.346Z,36
2018-06-11T16:38:44.408Z,35.9
2018-06-11T16:39:34.501Z,35.8
2018-06-11T16:40:24.266Z,35.8
2018-06-11T16:41:14.322Z,35.6
2018-06-11T16:42:04.686Z,35.5
2018-06-11T16:42:54.996Z,35.4
2018-06-11T16:43:44.504Z,35.3
2018-06-11T16:44:34.852Z,35.2
2018-06-11T16:45:24.368Z,35.1
2018-06-11T16:46:14.981Z,35
2018-06-11T16:47:04.582Z,34.9
2018-06-11T16:47:55.121Z,34.8
2018-06-11T16:48:45.082Z,34.6
2018-06-11T16:49:35.275Z,34.5
2018-06-11T16:50:25.055Z,34.4
2018-06-11T16:51:15.099Z,34.3
2018-06-11T16:52:05.164Z,34.2
2018-06-11T16:52:55.234Z,34.1
2018-06-11T16:53:45.564Z,34
2018-06-11T16:54:35.678Z,33.9
2018-06-11T16:55:25.430Z,33.8
2018-06-11T16:56:15.230Z,33.7
2018-06-11T16:57:05.542Z,33.6
2018-06-11T16:57:55.695Z,33.5
2018-06-11T16:58:45.399Z,33.3
2018-06-11T16:59:36.015Z,33.3
2018-06-11T17:00:25.518Z,33.1
2018-06-11T17:01:15.914Z,33
2018-06-11T17:02:05.170Z,32.9
2018-06-11T17:02:56.308Z,32.8
2018-06-11T17:03:46.184Z,32.7
2018-06-11T17:04:35.964Z,32.6
2018-06-11T17:05:26.203Z,32.5
2018-06-11T17:06:15.839Z,32.4
2018-06-11T17:07:06.151Z,32.3
2018-06-11T17:07:56.419Z,32.2
2018-06-11T17:08:46.463Z,32.1
2018-06-11T17:09:36.864Z,32
2018-06-11T17:10:25.930Z,31.9
2018-06-11T17:11:16.970Z,31.8
2018-06-11T17:12:06.463Z,31.7
2018-06-11T17:12:56.229Z,31.6
2018-06-11T17:13:46.551Z,31.4
2018-06-11T17:14:36.398Z,31.3
2018-06-11T17:15:26.985Z,31.2
2018-06-11T17:16:16.562Z,31.1
2018-06-11T17:17:07.120Z,31.1
2018-06-11T17:17:57.172Z,30.9
2018-06-11T17:18:47.509Z,30.8
2018-06-11T17:19:37.605Z,30.7
2018-06-11T17:20:27.661Z,30.6
2018-06-11T17:21:17.700Z,30.5
2018-06-11T17:22:07.788Z,30.4
2018-06-11T17:22:57.829Z,30.3
2018-06-11T17:23:47.924Z,30.2
2018-06-11T17:24:37.693Z,30.1
2018-06-11T17:25:28.119Z,30
2018-06-11T17:26:18.094Z,29.9
2018-06-11T17:27:08.158Z,29.8
2018-06-11T17:27:58.218Z,29.8
2018-06-11T17:28:48.287Z,29.6
2018-06-11T17:29:38.345Z,29.5
2018-06-11T17:30:28.409Z,29.4
2018-06-11T17:31:18.204Z,29.3
2018-06-11T17:32:08.566Z,29.3
2018-06-11T17:32:58.646Z,29.1
2018-06-11T17:33:48.128Z,29.1
2018-06-11T17:34:38.739Z,28.9
2018-06-11T17:35:28.811Z,28.9
2018-06-11T17:36:18.911Z,28.8
2018-06-11T17:37:08.955Z,28.7
2018-06-11T17:37:59.025Z,28.6
2018-06-11T17:38:49.074Z,28.6
2018-06-11T17:39:38.301Z,28.4
2018-06-11T17:40:28.932Z,28.4
2018-06-11T17:41:18.976Z,28.3
2018-06-11T17:42:09.317Z,28.2
2018-06-11T17:42:58.929Z,28.1
2018-06-11T17:43:49.466Z,28.1
2018-06-11T17:44:40.046Z,28
2018-06-11T17:45:29.352Z,27.9
2018-06-11T17:46:19.167Z,27.9
2018-06-11T17:47:59.245Z,27.8
2018-06-11T17:48:49.565Z,27.7
2018-06-11T17:49:39.898Z,27.6
2018-06-11T17:50:29.995Z,27.6
2018-06-11T17:51:20.616Z,27.5
2018-06-11T17:52:10.195Z,27.4
2018-06-11T17:52:59.637Z,27.4
2018-06-11T17:53:49.950Z,27.3
2018-06-11T17:54:40.802Z,27.3
2018-06-11T17:55:30.076Z,27.2
2018-06-11T17:56:20.429Z,27.1
2018-06-11T17:57:10.283Z,27.1
2018-06-11T17:58:00.558Z,27
2018-06-11T17:58:50.433Z,26.9
2018-06-11T17:59:40.702Z,26.9
2018-06-11T18:00:30.854Z,26.8
2018-06-11T18:01:20.820Z,26.8
2018-06-11T18:02:10.628Z,26.7
2018-06-11T18:03:00.398Z,26.7
2018-06-11T18:03:50.777Z,26.6
2018-06-11T18:04:41.371Z,26.6
2018-06-11T18:05:31.734Z,26.5
2018-06-11T18:06:21.222Z,26.5
2018-06-11T18:07:10.705Z,26.4
2018-06-11T18:08:01.324Z,26.4
2018-06-11T18:08:51.135Z,26.3
2018-06-11T18:09:41.475Z,26.3
2018-06-11T18:10:31.555Z,26.3
2018-06-11T18:11:21.589Z,26.1
2018-06-11T18:12:11.358Z,26.1
2018-06-11T18:13:01.167Z,26
2018-06-11T18:13:51.774Z,25.9
2018-06-11T18:14:41.803Z,25.9
2018-06-11T18:15:31.915Z,25.8
2018-06-11T18:16:21.993Z,25.7
2018-06-11T18:17:12.057Z,25.7
2018-06-11T18:18:01.555Z,25.6
2018-06-11T18:18:51.893Z,25.5
2018-06-11T18:19:42.267Z,25.4
2018-06-11T18:20:31.812Z,25.4
2018-06-11T18:21:22.442Z,25.3
2018-06-11T18:22:12.435Z,25.3
2018-06-11T18:23:02.208Z,25.3
2018-06-11T18:23:52.614Z,25.2
2018-06-11T18:24:42.632Z,25.1
2018-06-11T18:25:32.428Z,25.1
2018-06-11T18:26:23.179Z,25.1
2018-06-11T18:27:12.848Z,25
2018-06-11T18:28:02.619Z,24.9
2018-06-11T18:28:52.948Z,24.9
2018-06-11T18:29:42.469Z,24.9
2018-06-11T18:30:33.071Z,24.8
2018-06-11T18:31:23.126Z,24.8
2018-06-11T18:32:13.261Z,24.8
2018-06-11T18:33:02.733Z,24.7
2018-06-11T18:33:53.371Z,24.7
2018-06-11T18:34:43.133Z,24.6
2018-06-11T18:35:33.390Z,24.6
2018-06-11T18:36:23.553Z,24.5
2018-06-11T18:37:12.756Z,24.5
2018-06-11T18:38:03.685Z,24.4